Time;durP1;ratioP1;P1;durP2;ratioP2;P2;SDS_P1;SDS_P2;PMS_P1;PMS_P2;Temp;Humidity;BMP_temperature;BMP_pressure;BME280_temperature;BME280_humidity;BME280_pressure;Samples;Min_cycle;Max_cycle;Signal;HPM_P1;HPM_P2
2023/07/20 00:00:07;;;;;;;3.42;2.80;;;;;;;19.81;89.11;96512.50;5042657;28;20207;-65
2023/07/20 00:02:33;;;;;;;3.50;3.20;;;;;;;19.80;87.33;96516.22;5040688;28;20207;-67
2023/07/20 00:05:00;;;;;;;3.78;3.15;;;;;;;19.80;88.59;96513.53;5042326;28;20196;-64
2023/07/20 00:07:26;;;;;;;3.55;2.85;;;;;;;19.82;88.44;96510.66;5041895;28;20207;-65
2023/07/20 00:09:54;;;;;;;3.17;2.88;;;;;;;19.82;88.80;96516.00;5042330;28;20207;-67
2023/07/20 00:12:20;;;;;;;6.38;2.75;;;;;;;19.80;88.27;96510.84;5055410;28;20207;-67
2023/07/20 00:14:47;;;;;;;2.92;2.72;;;;;;;19.81;86.74;96525.91;5062432;28;20313;-66
2023/07/20 00:17:14;;;;;;;3.30;3.00;;;;;;;19.82;86.76;96527.56;5061446;28;20238;-65
2023/07/20 00:19:40;;;;;;;2.85;2.53;;;;;;;19.91;86.53;96522.03;5046120;28;20672;-69
2023/07/20 00:22:07;;;;;;;3.83;2.80;;;;;;;19.98;87.61;96525.56;5045035;28;20322;-65
2023/07/20 00:24:34;;;;;;;3.75;2.83;;;;;;;19.96;86.86;96522.22;5046608;28;20206;-65
2023/07/20 00:27:02;;;;;;;4.60;2.40;;;;;;;20.01;86.34;96523.28;5044759;28;20664;-65
2023/07/20 00:29:29;;;;;;;2.58;2.38;;;;;;;20.05;89.43;96527.19;5044288;28;20195;-63
2023/07/20 00:31:56;;;;;;;3.22;2.90;;;;;;;20.10;89.92;96531.94;5044118;28;20214;-64
2023/07/20 00:34:22;;;;;;;4.00;2.90;;;;;;;20.10;91.52;96531.94;5043652;28;20219;-65
2023/07/20 00:36:49;;;;;;;2.58;2.38;;;;;;;20.10;92.65;96538.16;5042842;28;20199;-68
2023/07/20 00:39:17;;;;;;;3.42;2.72;;;;;;;20.12;91.49;96536.06;5043287;28;20232;-65
2023/07/20 00:41:44;;;;;;;6.47;2.75;;;;;;;20.07;91.09;96527.81;5042749;28;20203;-66
2023/07/20 00:44:12;;;;;;;2.83;2.60;;;;;;;20.01;91.91;96523.28;5041898;28;20207;-65
2023/07/20 00:46:41;;;;;;;3.22;2.50;;;;;;;20.03;92.01;96526.56;5043061;28;20526;-65
2023/07/20 00:49:08;;;;;;;2.75;2.55;;;;;;;19.99;92.01;96525.31;5041806;28;20223;-63
2023/07/20 00:51:34;;;;;;;2.50;2.30;;;;;;;19.92;92.92;96523.66;5041780;28;20274;-63
2023/07/20 00:54:01;;;;;;;3.00;2.30;;;;;;;19.90;94.53;96523.06;5043040;28;20206;-65
2023/07/20 00:56:27;;;;;;;3.88;2.30;;;;;;;19.86;95.72;96528.00;5041844;28;20231;-65
2023/07/20 00:58:54;;;;;;;4.03;3.40;;;;;;;19.79;95.62;96519.94;5041672;28;20199;-64
2023/07/20 01:01:23;;;;;;;3.72;3.15;;;;;;;19.82;95.60;96518.69;5042617;28;20215;-65
2023/07/20 01:03:50;;;;;;;3.13;2.63;;;;;;;19.80;95.23;96526.13;5041529;28;20203;-65
2023/07/20 01:06:27;;;;;;;2.88;2.55;;;;;;;19.71;94.02;96528.16;5041927;28;20632;-65
2023/07/20 01:09:05;;;;;;;3.47;2.30;;;;;;;19.69;94.70;96530.25;5041649;28;20227;-65
2023/07/20 01:11:39;;;;;;;2.55;2.35;;;;;;;19.63;93.73;96525.66;5043074;28;20202;-64
2023/07/20 01:14:06;;;;;;;5.25;2.47;;;;;;;19.58;95.15;96521.94;5041651;28;20321;-63
2023/07/20 01:16:35;;;;;;;3.25;2.20;;;;;;;19.65;95.24;96523.63;5041753;28;20309;-64
2023/07/20 01:19:02;;;;;;;2.58;2.38;;;;;;;19.60;95.72;96526.06;5041328;28;20207;-66
2023/07/20 01:21:33;;;;;;;4.40;2.13;;;;;;;19.65;96.13;96525.47;5042942;28;20219;-65
2023/07/20 01:24:12;;;;;;;3.13;2.83;;;;;;;19.65;94.36;96515.56;5041514;28;20195;-64
2023/07/20 01:27:06;;;;;;;3.50;2.47;;;;;;;19.63;96.00;96528.34;5045387;28;20206;-64
2023/07/20 01:29:47;;;;;;;4.57;2.40;;;;;;;19.56;95.96;96522.13;5042345;28;20200;-67
2023/07/20 01:32:16;;;;;;;3.10;2.42;;;;;;;19.55;95.79;96517.81;5043999;28;20233;-64
2023/07/20 01:34:43;;;;;;;3.85;2.53;;;;;;;19.59;96.92;96524.41;5048779;28;20209;-66
2023/07/20 01:37:10;;;;;;;3.20;2.55;;;;;;;19.58;96.18;96517.41;5046707;28;20199;-65
2023/07/20 01:39:38;;;;;;;3.95;2.13;;;;;;;19.58;96.68;96528.16;5047316;28;20203;-64
2023/07/20 01:42:06;;;;;;;6.72;2.35;;;;;;;19.56;96.98;96518.63;5045691;28;20211;-69
2023/07/20 01:44:33;;;;;;;3.40;2.15;;;;;;;19.54;96.00;96520.69;5044723;28;20294;-66
2023/07/20 01:47:03;;;;;;;3.17;2.10;;;;;;;19.55;95.83;96512.47;5044900;28;20214;-65
2023/07/20 01:49:33;;;;;;;3.47;2.40;;;;;;;19.55;95.73;96506.25;5044917;28;20207;-65
2023/07/20 01:51:59;;;;;;;2.92;2.33;;;;;;;19.45;96.76;96508.50;5044145;28;20589;-66
2023/07/20 01:54:26;;;;;;;2.72;2.22;;;;;;;19.48;96.14;96516.13;5045799;28;20214;-66
2023/07/20 01:56:52;;;;;;;3.55;2.17;;;;;;;19.50;95.57;96514.91;5044274;28;20676;-65
2023/07/20 01:59:19;;;;;;;2.47;2.28;;;;;;;19.49;96.30;96510.56;5044203;28;20211;-67
2023/07/20 02:01:46;;;;;;;3.38;2.15;;;;;;;19.53;96.02;96521.72;5044269;28;20225;-64
2023/07/20 02:04:13;;;;;;;3.78;2.25;;;;;;;19.51;96.53;96516.56;5045546;28;20203;-65
2023/07/20 02:06:41;;;;;;;3.55;2.28;;;;;;;19.46;96.46;96516.31;5043100;28;20203;-64
2023/07/20 02:09:07;;;;;;;5.05;2.22;;;;;;;19.43;97.00;96524.78;5044846;28;20250;-64
2023/07/20 02:11:34;;;;;;;5.38;2.40;;;;;;;19.37;97.37;96520.19;5044984;28;20607;-65
2023/07/20 02:14:01;;;;;;;2.50;1.88;;;;;;;19.38;98.65;96521.84;5044414;28;20212;-65
2023/07/20 02:16:28;;;;;;;2.95;2.45;;;;;;;19.35;99.03;96522.22;5043506;28;20249;-64
2023/07/20 02:18:56;;;;;;;5.25;2.17;;;;;;;19.34;96.93;96524.09;5045106;28;20627;-66
2023/07/20 02:21:24;;;;;;;3.13;1.90;;;;;;;19.35;97.46;96525.75;5046848;28;20204;-64
2023/07/20 02:23:52;;;;;;;1.95;1.85;;;;;;;19.38;96.69;96517.31;5053833;28;20214;-73
2023/07/20 02:26:19;;;;;;;2.70;2.15;;;;;;;19.39;97.92;96520.81;5062365;28;20192;-64
2023/07/20 02:28:45;;;;;;;5.05;2.20;;;;;;;19.38;97.34;96517.31;5058905;28;20191;-69
2023/07/20 02:31:12;;;;;;;3.45;2.35;;;;;;;19.36;99.04;96524.72;5065464;28;20203;-68
2023/07/20 02:33:38;;;;;;;2.78;2.33;;;;;;;19.38;100.00;96524.50;5057760;28;20208;-68
2023/07/20 02:36:05;;;;;;;4.13;1.88;;;;;;;19.35;97.87;96524.91;5046597;28;20228;-63
2023/07/20 02:38:34;;;;;;;4.20;1.90;;;;;;;19.42;96.53;96533.00;5046262;28;20228;-63
2023/07/20 02:41:04;;;;;;;3.60;2.00;;;;;;;19.37;98.33;96534.44;5047970;28;20295;-66
2023/07/20 02:43:31;;;;;;;3.38;2.17;;;;;;;19.37;99.65;96530.94;5046009;28;20651;-64
2023/07/20 02:45:57;;;;;;;2.15;2.00;;;;;;;19.37;97.33;96537.13;5046061;28;20207;-64
2023/07/20 02:48:25;;;;;;;3.05;2.10;;;;;;;19.41;99.05;96536.72;5045854;28;20203;-64
2023/07/20 02:50:52;;;;;;;3.45;2.05;;;;;;;19.39;98.93;96534.22;5045902;28;20215;-65
2023/07/20 02:53:18;;;;;;;3.63;2.00;;;;;;;19.35;98.63;96535.66;5046249;28;20208;-66
2023/07/20 02:55:45;;;;;;;3.78;2.15;;;;;;;19.37;98.28;96530.94;5044549;28;20253;-64
2023/07/20 02:58:12;;;;;;;2.60;1.85;;;;;;;19.39;99.78;96534.22;5045013;28;20214;-66
2023/07/20 03:00:40;;;;;;;3.55;1.90;;;;;;;19.40;100.00;96530.53;5044440;28;20196;-64
2023/07/20 03:03:09;;;;;;;1.98;1.80;;;;;;;19.44;99.10;96534.50;5048198;28;20202;-64
2023/07/20 03:05:37;;;;;;;3.50;2.00;;;;;;;19.50;98.33;96532.84;5044639;28;20321;-67
2023/07/20 03:08:06;;;;;;;2.75;1.83;;;;;;;19.46;99.64;96540.47;5043456;28;20227;-66
2023/07/20 03:10:32;;;;;;;2.47;1.85;;;;;;;19.47;99.54;96536.78;5044279;28;20208;-64
2023/07/20 03:12:59;;;;;;;1.70;1.60;;;;;;;19.50;99.33;96540.88;5044817;28;20214;-65
2023/07/20 03:15:27;;;;;;;2.40;1.92;;;;;;;19.48;99.73;96537.59;5043859;28;20256;-65
2023/07/20 03:17:53;;;;;;;2.13;2.00;;;;;;;19.46;98.67;96540.47;5044444;28;21333;-65
2023/07/20 03:20:20;;;;;;;2.72;1.92;;;;;;;19.51;99.60;96535.34;5043670;28;20212;-67
2023/07/20 03:22:47;;;;;;;2.53;2.30;;;;;;;19.53;98.72;96530.59;5043489;28;20467;-65
2023/07/20 03:25:13;;;;;;;4.63;2.15;;;;;;;19.51;98.81;96537.19;5043029;28;20207;-65
2023/07/20 03:27:40;;;;;;;2.45;2.03;;;;;;;19.45;97.62;96528.06;5041810;28;20520;-66
2023/07/20 03:30:09;;;;;;;3.22;1.70;;;;;;;19.44;97.04;96531.81;5043269;28;20257;-64
2023/07/20 03:32:37;;;;;;;2.88;2.10;;;;;;;19.44;95.79;96536.34;5044634;28;20299;-65
2023/07/20 03:35:05;;;;;;;3.67;2.05;;;;;;;19.39;93.79;96528.84;5044117;28;20219;-64
2023/07/20 03:37:31;;;;;;;4.40;1.60;;;;;;;19.36;93.62;96531.94;5043581;28;20200;-65
2023/07/20 03:40:00;;;;;;;1.80;1.55;;;;;;;19.31;95.19;96540.56;5044128;28;20211;-66
2023/07/20 03:42:34;;;;;;;2.47;2.20;;;;;;;19.20;95.42;96540.34;5043459;28;20211;-66
2023/07/20 03:45:04;;;;;;;2.28;1.85;;;;;;;19.12;95.84;96532.47;5043773;28;20198;-64
2023/07/20 03:47:31;;;;;;;3.10;1.80;;;;;;;19.08;95.77;96539.25;5042733;28;20205;-65
2023/07/20 03:49:58;;;;;;;2.38;2.10;;;;;;;19.17;95.30;96535.34;5042577;28;20206;-65
2023/07/20 03:52:25;;;;;;;4.22;1.83;;;;;;;19.19;95.38;96544.03;5042714;28;20210;-66
2023/07/20 03:54:53;;;;;;;3.60;1.95;;;;;;;19.19;94.62;96549.41;5043060;28;20210;-66
2023/07/20 03:57:19;;;;;;;1.90;1.80;;;;;;;19.13;95.46;96545.66;5042179;28;20235;-67
2023/07/20 03:59:46;;;;;;;2.08;1.80;;;;;;;19.04;94.56;96546.00;5042368;28;20216;-65
2023/07/20 04:02:13;;;;;;;2.40;1.80;;;;;;;19.13;97.08;96550.19;5042350;28;20568;-64
2023/07/20 04:04:39;;;;;;;2.90;2.05;;;;;;;19.15;98.14;96543.59;5042253;28;20633;-65
2023/07/20 04:07:08;;;;;;;2.60;1.88;;;;;;;19.21;99.58;96536.59;5040966;28;20208;-65
2023/07/20 04:09:34;;;;;;;2.97;2.10;;;;;;;19.20;99.27;96548.38;5041669;28;20720;-65
2023/07/20 04:12:01;;;;;;;2.65;1.92;;;;;;;19.22;98.93;96549.84;5042884;28;20204;-66
2023/07/20 04:14:28;;;;;;;4.70;1.77;;;;;;;19.27;99.75;96541.19;5044011;28;20199;-67
2023/07/20 04:16:55;;;;;;;2.10;1.90;;;;;;;19.31;100.00;96558.53;5044032;28;20231;-65
2023/07/20 04:19:21;;;;;;;2.55;1.80;;;;;;;19.31;100.00;96553.16;5042667;28;20204;-66
2023/07/20 04:21:48;;;;;;;4.68;2.17;;;;;;;19.31;100.00;96554.00;5042512;28;20625;-65
2023/07/20 04:24:17;;;;;;;2.38;2.20;;;;;;;19.35;98.12;96549.06;5041317;28;20212;-63
2023/07/20 04:26:43;;;;;;;1.67;1.58;;;;;;;19.33;96.69;96548.44;5042280;28;20207;-66
2023/07/20 04:29:12;;;;;;;2.85;2.10;;;;;;;19.32;98.77;96550.28;5041149;28;20214;-66
2023/07/20 04:31:39;;;;;;;3.03;1.83;;;;;;;19.37;99.20;96549.69;5042856;28;20240;-66
2023/07/20 04:34:06;;;;;;;2.72;2.00;;;;;;;19.36;98.16;96556.91;5042652;28;20210;-67
2023/07/20 04:36:32;;;;;;;4.38;2.10;;;;;;;19.32;99.65;96554.81;5044249;28;21425;-66
2023/07/20 04:39:00;;;;;;;4.15;2.05;;;;;;;19.31;100.00;96555.84;5043343;28;20204;-66
2023/07/20 04:41:28;;;;;;;1.92;1.67;;;;;;;19.33;100.00;96557.31;5062532;28;20207;-69
2023/07/20 04:43:55;;;;;;;2.30;2.10;;;;;;;19.33;100.00;96567.22;5063930;28;20208;-72
2023/07/20 04:46:22;;;;;;;2.70;2.00;;;;;;;19.36;98.92;96573.00;5056714;28;20229;-66
2023/07/20 04:48:48;;;;;;;6.13;2.13;;;;;;;19.35;96.95;96554.41;5046449;28;20290;-64
2023/07/20 04:51:17;;;;;;;4.30;2.00;;;;;;;19.35;99.00;96565.97;5046533;28;20257;-64
2023/07/20 04:53:43;;;;;;;3.28;1.98;;;;;;;19.36;98.85;96564.97;5045247;28;20200;-65
2023/07/20 04:56:10;;;;;;;3.35;1.98;;;;;;;19.41;99.95;96566.22;5045192;28;20227;-65
2023/07/20 04:58:38;;;;;;;6.63;2.53;;;;;;;19.41;100.00;96566.22;5044060;28;20203;-67
2023/07/20 05:01:05;;;;;;;1.75;1.65;;;;;;;19.42;100.00;96562.50;5043774;28;20203;-65
2023/07/20 05:03:32;;;;;;;2.30;2.10;;;;;;;19.39;100.00;96561.03;5043336;28;20203;-67
2023/07/20 05:05:58;;;;;;;2.17;1.90;;;;;;;19.36;100.00;96566.81;5043011;28;20204;-64
2023/07/20 05:08:26;;;;;;;2.83;1.92;;;;;;;19.39;100.00;96564.56;5042715;28;20200;-66
2023/07/20 05:10:53;;;;;;;2.70;1.90;;;;;;;19.36;100.00;96561.44;5042630;28;20219;-67
2023/07/20 05:13:19;;;;;;;2.15;1.92;;;;;;;19.40;100.00;96562.69;5042620;28;20215;-66
2023/07/20 05:15:47;;;;;;;2.45;1.90;;;;;;;19.45;100.00;96562.13;5041896;28;20239;-65
2023/07/20 05:18:19;;;;;;;3.50;2.33;;;;;;;19.45;100.00;96565.63;5042576;28;20844;-66
2023/07/20 05:20:47;;;;;;;2.78;2.10;;;;;;;19.53;100.00;96561.94;5044641;28;20230;-66
2023/07/20 05:23:13;;;;;;;4.35;1.98;;;;;;;19.63;99.22;96557.03;5043149;28;21270;-66
2023/07/20 05:25:40;;;;;;;2.08;1.92;;;;;;;19.73;98.18;96566.34;5042050;28;20207;-66
2023/07/20 05:28:07;;;;;;;5.28;2.20;;;;;;;19.74;99.25;96559.97;5042063;28;20211;-65
2023/07/20 05:30:33;;;;;;;3.03;2.72;;;;;;;19.77;94.05;96567.59;5042167;28;20287;-66
2023/07/20 05:33:01;;;;;;;2.80;2.50;;;;;;;19.83;93.31;96564.13;5042166;28;20549;-66
2023/07/20 05:35:28;;;;;;;2.60;2.40;;;;;;;19.88;94.43;96555.44;5041253;28;20207;-66
2023/07/20 05:37:54;;;;;;;3.53;2.20;;;;;;;19.95;93.08;96560.81;5042189;28;20227;-65
2023/07/20 05:40:21;;;;;;;4.22;2.40;;;;;;;20.01;96.12;96558.19;5042351;28;20206;-65
2023/07/20 05:42:47;;;;;;;5.68;2.30;;;;;;;20.09;93.08;96557.13;5041786;28;20195;-67
2023/07/20 05:45:14;;;;;;;2.30;2.00;;;;;;;20.14;91.03;96560.06;5041197;28;20265;-64
2023/07/20 05:47:42;;;;;;;4.13;1.98;;;;;;;20.16;90.18;96568.72;5041267;28;20192;-65
2023/07/20 05:50:11;;;;;;;2.22;1.83;;;;;;;20.19;88.92;96562.97;5041713;28;20216;-65
2023/07/20 05:52:38;;;;;;;6.30;1.85;;;;;;;20.19;89.71;96557.59;5041426;28;20214;-64
2023/07/20 05:55:08;;;;;;;3.10;1.88;;;;;;;20.21;92.17;96563.56;5042435;28;20208;-65
2023/07/20 05:57:35;;;;;;;2.85;1.90;;;;;;;20.23;91.20;96565.00;5041352;28;20657;-67
2023/07/20 06:00:04;;;;;;;4.25;2.17;;;;;;;20.25;87.34;96556.75;5041245;28;20511;-64
2023/07/20 06:02:32;;;;;;;2.17;1.80;;;;;;;20.28;90.33;96551.00;5041425;28;20235;-63
2023/07/20 06:04:59;;;;;;;2.63;2.00;;;;;;;20.32;91.27;96558.47;5041608;28;20235;-66
2023/07/20 06:07:27;;;;;;;2.78;2.30;;;;;;;20.49;91.18;96556.19;5041984;28;20295;-65
2023/07/20 06:09:54;;;;;;;2.33;2.05;;;;;;;20.65;88.95;96563.00;5043014;28;20207;-66
2023/07/20 06:12:20;;;;;;;4.05;2.42;;;;;;;20.80;87.05;96558.22;5041087;28;20200;-64
2023/07/20 06:14:47;;;;;;;4.95;2.75;;;;;;;20.93;86.44;96549.31;5040881;28;20211;-64
2023/07/20 06:17:14;;;;;;;3.90;2.30;;;;;;;20.96;83.71;96560.47;5040668;28;20326;-65
2023/07/20 06:19:40;;;;;;;2.88;2.25;;;;;;;21.04;84.35;96554.06;5044729;28;20221;-65
2023/07/20 06:22:08;;;;;;;4.22;2.60;;;;;;;21.04;82.79;96546.81;5045398;28;20211;-67
2023/07/20 06:24:36;;;;;;;3.17;2.88;;;;;;;20.97;80.21;96550.56;5046116;28;20199;-70
2023/07/20 06:27:03;;;;;;;7.28;2.85;;;;;;;20.95;77.94;96550.75;5044913;28;20204;-64
2023/07/20 06:29:31;;;;;;;4.85;2.85;;;;;;;21.00;80.11;96547.44;5045369;28;20668;-67
2023/07/20 06:31:58;;;;;;;3.17;2.70;;;;;;;21.01;81.43;96549.09;5047082;28;20209;-63
2023/07/20 06:34:26;;;;;;;4.60;2.60;;;;;;;21.02;83.71;96548.88;5045615;28;20218;-65
2023/07/20 06:36:52;;;;;;;3.08;2.40;;;;;;;21.00;81.34;96550.13;5044650;28;20228;-64
2023/07/20 06:39:21;;;;;;;5.25;2.33;;;;;;;21.01;82.42;96552.59;5044332;28;20208;-64
2023/07/20 06:41:49;;;;;;;5.45;2.35;;;;;;;20.97;81.37;96553.25;5045112;28;20204;-65
2023/07/20 06:44:16;;;;;;;2.67;2.40;;;;;;;21.00;83.43;96555.50;5044826;28;20203;-64
2023/07/20 06:46:42;;;;;;;7.07;2.42;;;;;;;21.03;82.14;96549.72;5044610;28;20202;-64
2023/07/20 06:49:09;;;;;;;4.07;2.20;;;;;;;21.28;82.53;96550.72;5044458;28;20203;-65
2023/07/20 06:51:36;;;;;;;3.95;2.25;;;;;;;21.51;79.05;96551.03;5043597;28;20218;-63
2023/07/20 06:54:04;;;;;;;3.63;2.10;;;;;;;21.82;78.00;96553.75;5044547;28;20206;-66
2023/07/20 06:56:31;;;;;;;3.88;2.13;;;;;;;21.99;77.23;96556.84;5054752;28;20226;-63
2023/07/20 06:58:59;;;;;;;4.93;2.15;;;;;;;22.04;76.63;96559.69;5056895;28;20215;-65
2023/07/20 07:01:25;;;;;;;2.50;2.30;;;;;;;22.02;75.39;96559.09;5047424;28;20207;-66
2023/07/20 07:03:54;;;;;;;3.17;1.85;;;;;;;22.08;75.41;96554.69;5045691;28;20225;-66
2023/07/20 07:06:22;;;;;;;4.28;2.20;;;;;;;22.06;76.59;96557.63;5047841;28;20210;-65
2023/07/20 07:08:50;;;;;;;2.40;2.13;;;;;;;22.42;75.68;96556.94;5045463;28;20203;-65
2023/07/20 07:11:16;;;;;;;4.22;2.03;;;;;;;22.60;75.05;96551.59;5044931;28;20701;-65
2023/07/20 07:13:46;;;;;;;3.17;1.92;;;;;;;22.74;74.36;96547.78;5043602;28;20217;-65
2023/07/20 07:16:18;;;;;;;3.30;2.00;;;;;;;22.69;72.39;96553.03;5045775;28;20325;-64
2023/07/20 07:18:45;;;;;;;2.90;1.75;;;;;;;22.60;70.31;96554.28;5045112;28;20199;-64
2023/07/20 07:21:12;;;;;;;2.28;1.90;;;;;;;22.62;68.88;96554.09;5044517;28;20210;-66
2023/07/20 07:23:38;;;;;;;3.00;2.00;;;;;;;22.79;69.57;96555.19;5044269;28;20196;-66
2023/07/20 07:26:05;;;;;;;3.70;1.90;;;;;;;22.85;71.53;96554.31;5044637;28;20207;-65
2023/07/20 07:28:32;;;;;;;2.97;2.00;;;;;;;23.28;71.18;96556.97;5042870;28;20199;-65
2023/07/20 07:30:58;;;;;;;4.22;2.00;;;;;;;23.47;69.12;96553.28;5042312;28;20227;-66
2023/07/20 07:33:26;;;;;;;4.75;2.13;;;;;;;23.75;69.24;96550.84;5043552;28;20215;-65
2023/07/20 07:35:53;;;;;;;2.17;1.77;;;;;;;23.73;68.53;96546.72;5043104;28;20206;-63
2023/07/20 07:38:19;;;;;;;7.43;2.50;;;;;;;23.62;67.79;96548.31;5043740;28;20292;-65
2023/07/20 07:40:46;;;;;;;3.53;1.90;;;;;;;23.56;65.75;96545.72;5044764;28;20226;-66
2023/07/20 07:43:13;;;;;;;5.07;2.13;;;;;;;23.87;66.25;96541.97;5045325;28;20311;-64
2023/07/20 07:45:40;;;;;;;2.22;1.83;;;;;;;23.89;66.69;96553.34;5043746;28;20199;-64
2023/07/20 07:48:08;;;;;;;2.50;2.30;;;;;;;23.87;66.60;96548.22;5043670;28;20215;-63
2023/07/20 07:50:35;;;;;;;3.80;2.22;;;;;;;23.66;65.93;96546.81;5043263;28;20262;-63
2023/07/20 07:53:02;;;;;;;4.07;2.13;;;;;;;23.88;68.26;96540.94;5043637;28;20629;-64
2023/07/20 07:55:29;;;;;;;3.35;2.20;;;;;;;24.20;65.60;96545.88;5044193;28;20604;-63
2023/07/20 07:57:55;;;;;;;7.88;2.40;;;;;;;24.43;66.72;96542.41;5042750;28;20244;-63
2023/07/20 08:00:24;;;;;;;3.38;2.22;;;;;;;24.64;66.40;96539.16;5043428;28;20222;-63
2023/07/20 08:02:51;;;;;;;5.13;2.53;;;;;;;24.72;67.24;96543.41;5043941;28;20647;-64
2023/07/20 08:05:18;;;;;;;3.42;2.15;;;;;;;24.94;63.37;96535.56;5044355;28;20196;-63
2023/07/20 08:07:46;;;;;;;3.70;2.20;;;;;;;24.96;63.16;96533.44;5044196;28;20265;-63
2023/07/20 08:10:12;;;;;;;3.00;2.20;;;;;;;24.84;64.28;96529.88;5043337;28;20309;-64
2023/07/20 08:12:39;;;;;;;3.83;2.03;;;;;;;24.83;63.69;96530.94;5044826;28;20199;-63
2023/07/20 08:15:06;;;;;;;3.13;2.00;;;;;;;25.01;63.32;96531.66;5045085;28;20214;-62
2023/07/20 08:17:33;;;;;;;2.30;2.10;;;;;;;25.23;63.39;96529.97;5045172;28;20254;-63
2023/07/20 08:20:00;;;;;;;4.03;2.10;;;;;;;25.59;60.52;96526.16;5044222;28;20219;-63
2023/07/20 08:22:26;;;;;;;2.22;2.13;;;;;;;25.67;61.77;96531.22;5045804;28;20702;-63
2023/07/20 08:24:54;;;;;;;5.30;2.38;;;;;;;25.54;60.43;96528.75;5043633;28;20636;-64
2023/07/20 08:27:21;;;;;;;3.90;2.45;;;;;;;25.13;61.76;96534.34;5043418;28;20645;-64
2023/07/20 08:29:47;;;;;;;2.83;1.75;;;;;;;25.19;60.82;96533.41;5042322;28;20526;-63
2023/07/20 08:32:14;;;;;;;3.03;2.25;;;;;;;25.52;59.22;96522.78;5042687;28;20522;-64
2023/07/20 08:34:42;;;;;;;4.85;2.40;;;;;;;25.68;60.52;96534.75;5043679;28;20208;-65
2023/07/20 08:37:09;;;;;;;2.55;1.98;;;;;;;25.67;58.84;96528.50;5044300;28;20254;-62
2023/07/20 08:39:36;;;;;;;3.60;2.03;;;;;;;25.83;59.37;96528.78;5042826;28;20207;-63
2023/07/20 08:42:06;;;;;;;3.55;2.00;;;;;;;25.91;57.44;96528.41;5042013;28;20208;-65
2023/07/20 08:44:33;;;;;;;3.90;2.35;;;;;;;26.08;57.20;96529.28;5042220;28;20202;-63
2023/07/20 08:47:02;;;;;;;2.05;1.88;;;;;;;26.05;54.90;96524.34;5042966;28;20511;-64
2023/07/20 08:49:30;;;;;;;2.25;2.05;;;;;;;26.09;58.11;96525.50;5042958;28;20222;-62
2023/07/20 08:51:57;;;;;;;5.18;2.00;;;;;;;26.05;57.23;96521.63;5043226;28;20272;-63
2023/07/20 08:54:23;;;;;;;3.80;2.00;;;;;;;26.20;55.10;96516.53;5044827;28;20195;-63
2023/07/20 08:56:50;;;;;;;3.58;1.80;;;;;;;26.26;55.34;96518.25;5044911;28;20285;-63
2023/07/20 08:59:18;;;;;;;2.53;1.65;;;;;;;26.21;55.47;96512.75;5041929;28;20207;-65
2023/07/20 09:01:45;;;;;;;3.15;2.15;;;;;;;26.16;59.01;96520.75;5042006;28;20210;-63
2023/07/20 09:04:12;;;;;;;4.38;1.70;;;;;;;26.11;55.06;96515.25;5043974;28;20525;-62
2023/07/20 09:06:38;;;;;;;3.03;1.83;;;;;;;26.20;54.27;96519.25;5042545;28;20211;-63
2023/07/20 09:09:05;;;;;;;8.00;1.77;;;;;;;25.94;56.27;96515.19;5042836;28;20194;-63
2023/07/20 09:11:32;;;;;;;1.75;1.65;;;;;;;25.85;57.74;96510.41;5045628;28;20218;-63
2023/07/20 09:14:05;;;;;;;2.33;1.60;;;;;;;25.84;58.48;96509.59;5043428;28;20266;-63
2023/07/20 09:16:36;;;;;;;1.50;1.40;;;;;;;25.85;56.82;96510.41;5045214;28;20262;-63
2023/07/20 09:19:02;;;;;;;2.28;1.80;;;;;;;25.90;57.81;96508.63;5044376;28;20226;-64
2023/07/20 09:21:30;;;;;;;3.58;1.90;;;;;;;25.91;58.98;96506.72;5044055;28;20294;-62
2023/07/20 09:23:57;;;;;;;3.03;1.80;;;;;;;25.85;57.79;96508.53;5043730;28;20234;-63
2023/07/20 09:26:24;;;;;;;2.67;1.80;;;;;;;25.78;58.16;96502.44;5043871;28;20203;-63
2023/07/20 09:28:54;;;;;;;3.53;2.03;;;;;;;25.64;57.19;96485.66;5046645;28;20196;-61
2023/07/20 09:31:21;;;;;;;4.13;2.00;;;;;;;25.70;58.23;96495.53;5050751;28;20849;-62
2023/07/20 09:33:50;;;;;;;1.95;1.83;;;;;;;25.87;57.67;96492.84;5053776;28;20209;-62
2023/07/20 09:36:17;;;;;;;2.45;1.83;;;;;;;26.02;57.92;96484.19;5046464;28;20207;-64
2023/07/20 09:38:45;;;;;;;3.80;1.95;;;;;;;26.25;57.33;96484.09;5048143;28;20661;-63
2023/07/20 09:41:14;;;;;;;2.28;1.88;;;;;;;26.32;55.74;96490.19;5045633;28;20207;-62
2023/07/20 09:43:41;;;;;;;2.22;1.90;;;;;;;26.45;56.31;96484.44;5045540;28;20206;-62
2023/07/20 09:46:07;;;;;;;2.35;1.80;;;;;;;26.65;54.81;96473.88;5047010;28;20253;-63
2023/07/20 09:48:34;;;;;;;3.75;1.75;;;;;;;26.74;53.98;96477.00;5044169;28;20628;-65
2023/07/20 09:51:02;;;;;;;2.83;2.05;;;;;;;26.87;52.39;96475.84;5043286;28;20215;-68
2023/07/20 09:53:29;;;;;;;1.95;1.80;;;;;;;26.81;54.43;96476.84;5044260;28;20200;-65
2023/07/20 09:55:56;;;;;;;4.28;1.80;;;;;;;26.64;53.14;96472.22;5047308;28;20199;-65
2023/07/20 09:58:23;;;;;;;3.72;1.45;;;;;;;26.69;52.20;96474.22;5045267;28;20383;-64
2023/07/20 10:00:51;;;;;;;2.13;1.85;;;;;;;26.85;53.60;96478.00;5046774;28;20200;-63
2023/07/20 10:03:20;;;;;;;3.05;1.95;;;;;;;26.91;52.97;96468.88;5046978;28;20211;-63
2023/07/20 10:05:50;;;;;;;2.95;1.95;;;;;;;26.92;51.83;96465.91;5050769;28;20207;-63
2023/07/20 10:08:20;;;;;;;2.20;2.03;;;;;;;27.07;53.27;96465.28;5049516;28;20192;-62
2023/07/20 10:10:46;;;;;;;2.97;1.80;;;;;;;27.16;50.93;96464.63;5045945;28;20853;-64
2023/07/20 10:13:18;;;;;;;1.70;1.60;;;;;;;27.26;53.69;96455.78;5046930;28;20199;-61
2023/07/20 10:15:48;;;;;;;1.70;1.60;;;;;;;27.26;54.44;96455.78;5046370;28;20235;-61
2023/07/20 10:18:19;;;;;;;4.68;2.03;;;;;;;27.23;51.73;96464.41;5045089;28;20595;-62
2023/07/20 10:20:47;;;;;;;1.73;1.52;;;;;;;27.53;56.95;96453.94;5045483;28;20650;-64
2023/07/20 10:23:13;;;;;;;3.28;2.00;;;;;;;27.50;52.05;96454.47;5044077;28;20192;-65
2023/07/20 10:25:42;;;;;;;2.88;2.22;;;;;;;27.66;52.92;96447.31;5044749;28;20206;-66
2023/07/20 10:28:09;;;;;;;2.20;2.00;;;;;;;27.69;52.15;96447.63;5046049;28;20226;-63
2023/07/20 10:30:36;;;;;;;2.15;2.00;;;;;;;27.69;52.28;96447.63;5046975;28;20195;-63
2023/07/20 10:33:03;;;;;;;2.53;1.80;;;;;;;27.72;53.52;96442.75;5045612;28;20204;-63
2023/07/20 10:35:30;;;;;;;1.75;1.55;;;;;;;27.74;52.22;96438.69;5043132;28;20200;-61
2023/07/20 10:38:01;;;;;;;2.05;1.90;;;;;;;27.87;52.16;96432.03;5044068;28;20258;-62
2023/07/20 10:40:32;;;;;;;2.53;2.00;;;;;;;27.82;55.88;96440.13;5045011;28;20191;-65
2023/07/20 10:43:06;;;;;;;2.63;2.28;;;;;;;27.74;55.19;96432.44;5043726;28;20238;-62
2023/07/20 10:45:49;;;;;;;1.92;1.80;;;;;;;27.79;53.16;96430.59;5044102;28;20565;-63
2023/07/20 10:48:16;;;;;;;1.85;1.75;;;;;;;27.72;50.58;96423.72;5044020;28;20200;-65
2023/07/20 10:50:44;;;;;;;3.65;1.83;;;;;;;27.70;54.32;96416.63;5044196;28;20715;-64
2023/07/20 10:53:17;;;;;;;2.58;1.73;;;;;;;27.63;53.26;96417.94;5044162;28;20207;-63
2023/07/20 10:55:46;;;;;;;2.72;1.92;;;;;;;27.54;53.88;96416.75;5044652;28;20203;-63
2023/07/20 10:58:15;;;;;;;3.03;2.10;;;;;;;27.50;52.54;96418.31;5043317;28;20235;-61
2023/07/20 11:01:02;;;;;;;3.78;2.20;;;;;;;27.67;54.82;96414.44;5044656;28;20282;-62
2023/07/20 11:03:32;;;;;;;3.55;2.17;;;;;;;27.91;54.06;96405.97;5043549;28;20203;-64
2023/07/20 11:05:59;;;;;;;2.38;2.08;;;;;;;27.89;51.65;96408.13;5043783;28;20649;-63
2023/07/20 11:08:42;;;;;;;1.95;1.70;;;;;;;27.93;50.61;96409.25;5043195;28;20278;-63
2023/07/20 11:11:22;;;;;;;2.00;1.90;;;;;;;27.73;52.41;96396.31;5043641;28;20261;-63
2023/07/20 11:13:57;;;;;;;2.38;2.17;;;;;;;27.85;51.68;96396.13;5043171;28;20211;-61
2023/07/20 11:16:34;;;;;;;2.28;2.08;;;;;;;28.04;52.41;96397.41;5044112;28;20234;-63
2023/07/20 11:19:00;;;;;;;1.90;1.80;;;;;;;28.10;52.13;96393.66;5043327;28;20223;-61
2023/07/20 11:21:27;;;;;;;2.03;1.77;;;;;;;27.99;53.91;96397.34;5048272;28;20239;-64
2023/07/20 11:23:53;;;;;;;3.55;2.28;;;;;;;27.87;50.55;96396.69;5048810;28;20211;-64
2023/07/20 11:26:20;;;;;;;1.98;1.88;;;;;;;27.58;49.48;96385.28;5047739;28;20218;-65
2023/07/20 11:28:50;;;;;;;1.95;1.80;;;;;;;27.63;51.41;96388.06;5043767;28;20196;-64
2023/07/20 11:31:17;;;;;;;2.70;2.00;;;;;;;27.85;54.85;96388.78;5043372;28;20686;-64
2023/07/20 11:33:44;;;;;;;4.20;2.42;;;;;;;27.92;53.52;96385.84;5043073;28;20210;-66
2023/07/20 11:36:10;;;;;;;2.25;2.05;;;;;;;28.01;53.90;96387.03;5043964;28;20199;-64